sensor_id;sensor_type;location;lat;lon;timestamp;pressure;altitude;pressure_sealevel;temperature;humidity
54455;BME280;40364;52.270;10.546;2023-01-25T00:01:58;102784.81;;;8.58;60.55
54455;BME280;40364;52.270;10.546;2023-01-25T00:04:25;102779.00;;;8.55;61.31
54455;BME280;40364;52.270;10.546;2023-01-25T00:06:52;102774.47;;;9.20;58.22
54455;BME280;40364;52.270;10.546;2023-01-25T00:09:22;102773.00;;;9.58;57.15
54455;BME280;40364;52.270;10.546;2023-01-25T00:11:49;102774.19;;;9.26;57.64
54455;BME280;40364;52.270;10.546;2023-01-25T00:14:17;102759.22;;;9.07;58.30
54455;BME280;40364;52.270;10.546;2023-01-25T00:16:44;102766.75;;;8.81;59.08
54455;BME280;40364;52.270;10.546;2023-01-25T00:19:11;102762.28;;;9.10;58.50
54455;BME280;40364;52.270;10.546;2023-01-25T00:21:37;102760.56;;;9.25;58.02
54455;BME280;40364;52.270;10.546;2023-01-25T00:24:05;102762.56;;;9.09;59.13
54455;BME280;40364;52.270;10.546;2023-01-25T00:26:34;102752.72;;;12.60;49.14
54455;BME280;40364;52.270;10.546;2023-01-25T00:29:02;102752.88;;;10.30;52.95
54455;BME280;40364;52.270;10.546;2023-01-25T00:31:36;102749.69;;;9.38;57.05
54455;BME280;40364;52.270;10.546;2023-01-25T00:34:12;102754.97;;;9.40;57.67
54455;BME280;40364;52.270;10.546;2023-01-25T00:36:55;102751.13;;;9.21;58.28
54455;BME280;40364;52.270;10.546;2023-01-25T00:39:24;102742.16;;;9.44;57.97
54455;BME280;40364;52.270;10.546;2023-01-25T00:41:53;102746.78;;;9.69;57.19
54455;BME280;40364;52.270;10.546;2023-01-25T00:44:19;102746.72;;;8.89;59.21
54455;BME280;40364;52.270;10.546;2023-01-25T00:46:46;102735.31;;;9.06;59.44
54455;BME280;40364;52.270;10.546;2023-01-25T00:49:18;102752.19;;;9.40;58.59
54455;BME280;40364;52.270;10.546;2023-01-25T00:51:45;102742.22;;;9.24;58.71
54455;BME280;40364;52.270;10.546;2023-01-25T00:54:12;102740.09;;;8.85;60.07
54455;BME280;40364;52.270;10.546;2023-01-25T00:56:38;102738.13;;;8.70;60.03
54455;BME280;40364;52.270;10.546;2023-01-25T00:59:06;102730.31;;;8.22;65.57
54455;BME280;40364;52.270;10.546;2023-01-25T01:01:33;102719.53;;;8.81;61.63
54455;BME280;40364;52.270;10.546;2023-01-25T01:04:00;102723.94;;;9.02;60.24
54455;BME280;40364;52.270;10.546;2023-01-25T01:06:27;102718.81;;;9.40;59.33
54455;BME280;40364;52.270;10.546;2023-01-25T01:08:54;102717.03;;;9.69;58.18
54455;BME280;40364;52.270;10.546;2023-01-25T01:11:20;102725.03;;;8.91;60.35
54455;BME280;40364;52.270;10.546;2023-01-25T01:13:47;102723.00;;;9.32;59.29
54455;BME280;40364;52.270;10.546;2023-01-25T01:16:15;102716.44;;;9.72;58.12
54455;BME280;40364;52.270;10.546;2023-01-25T01:18:43;102718.28;;;9.33;58.70
54455;BME280;40364;52.270;10.546;2023-01-25T01:21:11;102708.81;;;9.34;59.45
54455;BME280;40364;52.270;10.546;2023-01-25T01:23:39;102719.88;;;9.49;58.42
54455;BME280;40364;52.270;10.546;2023-01-25T01:26:08;102716.53;;;9.52;58.67
54455;BME280;40364;52.270;10.546;2023-01-25T01:28:37;102714.41;;;9.19;59.69
54455;BME280;40364;52.270;10.546;2023-01-25T01:31:06;102711.16;;;9.71;58.41
54455;BME280;40364;52.270;10.546;2023-01-25T01:33:35;102694.81;;;8.34;64.16
54455;BME280;40364;52.270;10.546;2023-01-25T01:36:06;102707.19;;;9.23;62.47
54455;BME280;40364;52.270;10.546;2023-01-25T01:38:33;102703.16;;;11.53;51.01
54455;BME280;40364;52.270;10.546;2023-01-25T01:40:59;102690.03;;;12.80;48.54
54455;BME280;40364;52.270;10.546;2023-01-25T01:43:26;102686.13;;;12.48;47.62
54455;BME280;40364;52.270;10.546;2023-01-25T01:45:56;102685.66;;;12.74;47.75
54455;BME280;40364;52.270;10.546;2023-01-25T01:48:30;102676.09;;;13.35;46.41
54455;BME280;40364;52.270;10.546;2023-01-25T01:51:02;102676.56;;;12.17;49.23
54455;BME280;40364;52.270;10.546;2023-01-25T01:53:31;102675.66;;;12.54;48.47
54455;BME280;40364;52.270;10.546;2023-01-25T01:56:00;102669.22;;;12.54;48.69
54455;BME280;40364;52.270;10.546;2023-01-25T01:58:29;102662.63;;;12.50;48.28
54455;BME280;40364;52.270;10.546;2023-01-25T02:00:57;102669.03;;;14.01;45.06
54455;BME280;40364;52.270;10.546;2023-01-25T02:03:24;102664.94;;;12.10;48.18
54455;BME280;40364;52.270;10.546;2023-01-25T02:05:56;102656.47;;;13.62;45.80
54455;BME280;40364;52.270;10.546;2023-01-25T02:08:25;102657.13;;;13.04;46.92
54455;BME280;40364;52.270;10.546;2023-01-25T02:10:53;102653.88;;;13.66;45.78
54455;BME280;40364;52.270;10.546;2023-01-25T02:13:20;102646.34;;;13.39;45.20
54455;BME280;40364;52.270;10.546;2023-01-25T02:15:50;102656.91;;;13.56;45.80
54455;BME280;40364;52.270;10.546;2023-01-25T02:18:18;102654.66;;;13.44;45.62
54455;BME280;40364;52.270;10.546;2023-01-25T02:20:46;102649.47;;;13.24;45.35
54455;BME280;40364;52.270;10.546;2023-01-25T02:23:19;102651.50;;;13.04;46.91
54455;BME280;40364;52.270;10.546;2023-01-25T02:25:49;102652.56;;;13.36;46.25
54455;BME280;40364;52.270;10.546;2023-01-25T02:28:21;102646.03;;;13.27;45.93
54455;BME280;40364;52.270;10.546;2023-01-25T02:30:48;102653.81;;;11.67;49.20
54455;BME280;40364;52.270;10.546;2023-01-25T02:33:15;102654.44;;;12.21;49.09
54455;BME280;40364;52.270;10.546;2023-01-25T02:35:45;102649.06;;;13.30;46.34
54455;BME280;40364;52.270;10.546;2023-01-25T02:38:14;102658.59;;;13.79;45.25
54455;BME280;40364;52.270;10.546;2023-01-25T02:40:45;102649.84;;;12.43;48.33
54455;BME280;40364;52.270;10.546;2023-01-25T02:43:16;102658.25;;;12.25;48.42
54455;BME280;40364;52.270;10.546;2023-01-25T02:45:44;102649.25;;;13.34;46.42
54455;BME280;40364;52.270;10.546;2023-01-25T02:48:11;102650.59;;;13.86;44.90
54455;BME280;40364;52.270;10.546;2023-01-25T02:50:38;102639.94;;;13.38;45.13
54455;BME280;40364;52.270;10.546;2023-01-25T02:53:05;102643.69;;;12.60;46.99
54455;BME280;40364;52.270;10.546;2023-01-25T02:55:31;102644.38;;;13.26;45.93
54455;BME280;40364;52.270;10.546;2023-01-25T02:57:58;102647.03;;;9.86;54.33
54455;BME280;40364;52.270;10.546;2023-01-25T03:00:26;102638.38;;;12.45;51.09
54455;BME280;40364;52.270;10.546;2023-01-25T03:02:53;102633.72;;;13.28;46.27
54455;BME280;40364;52.270;10.546;2023-01-25T03:05:20;102640.91;;;14.28;44.22
54455;BME280;40364;52.270;10.546;2023-01-25T03:07:46;102637.41;;;14.76;42.80
54455;BME280;40364;52.270;10.546;2023-01-25T03:10:13;102641.00;;;14.68;42.93
54455;BME280;40364;52.270;10.546;2023-01-25T03:12:40;102640.91;;;14.28;43.34
54455;BME280;40364;52.270;10.546;2023-01-25T03:15:07;102632.34;;;13.89;44.20
54455;BME280;40364;52.270;10.546;2023-01-25T03:17:36;102633.91;;;13.31;46.08
54455;BME280;40364;52.270;10.546;2023-01-25T03:20:03;102633.09;;;12.43;47.28
54455;BME280;40364;52.270;10.546;2023-01-25T03:22:30;102641.16;;;13.05;46.21
54455;BME280;40364;52.270;10.546;2023-01-25T03:24:57;102629.09;;;11.79;49.43
54455;BME280;40364;52.270;10.546;2023-01-25T03:27:23;102625.59;;;12.06;48.80
54455;BME280;40364;52.270;10.546;2023-01-25T03:29:50;102618.56;;;13.42;45.95
54455;BME280;40364;52.270;10.546;2023-01-25T03:32:17;102616.44;;;14.20;43.90
54455;BME280;40364;52.270;10.546;2023-01-25T03:34:45;102613.63;;;14.42;43.71
54455;BME280;40364;52.270;10.546;2023-01-25T03:37:12;102612.34;;;12.77;46.45
54455;BME280;40364;52.270;10.546;2023-01-25T03:39:39;102625.97;;;13.74;44.96
54455;BME280;40364;52.270;10.546;2023-01-25T03:42:05;102619.16;;;13.89;44.52
54455;BME280;40364;52.270;10.546;2023-01-25T03:44:32;102619.34;;;12.47;46.39
54455;BME280;40364;52.270;10.546;2023-01-25T03:46:59;102619.19;;;12.98;46.77
54455;BME280;40364;52.270;10.546;2023-01-25T03:49:25;102612.59;;;13.71;44.68
54455;BME280;40364;52.270;10.546;2023-01-25T03:51:54;102620.81;;;14.57;43.17
54455;BME280;40364;52.270;10.546;2023-01-25T03:54:22;102609.81;;;13.58;43.98
54455;BME280;40364;52.270;10.546;2023-01-25T03:56:49;102605.03;;;14.16;43.41
54455;BME280;40364;52.270;10.546;2023-01-25T03:59:15;102605.75;;;14.00;43.77
54455;BME280;40364;52.270;10.546;2023-01-25T04:01:42;102599.69;;;14.29;43.01
54455;BME280;40364;52.270;10.546;2023-01-25T04:04:09;102594.63;;;14.17;43.12
54455;BME280;40364;52.270;10.546;2023-01-25T04:06:35;102579.72;;;14.53;42.46
54455;BME280;40364;52.270;10.546;2023-01-25T04:09:03;102580.53;;;14.00;43.65
54455;BME280;40364;52.270;10.546;2023-01-25T04:11:30;102585.50;;;12.62;45.89
54455;BME280;40364;52.270;10.546;2023-01-25T04:13:56;102584.22;;;9.31;55.95
54455;BME280;40364;52.270;10.546;2023-01-25T04:16:24;102577.03;;;9.20;57.84
54455;BME280;40364;52.270;10.546;2023-01-25T04:18:51;102577.31;;;13.21;45.89
54455;BME280;40364;52.270;10.546;2023-01-25T04:21:18;102581.16;;;13.97;44.27
54455;BME280;40364;52.270;10.546;2023-01-25T04:23:44;102577.06;;;14.25;43.26
54455;BME280;40364;52.270;10.546;2023-01-25T04:26:13;102570.28;;;13.09;45.54
54455;BME280;40364;52.270;10.546;2023-01-25T04:28:39;102565.53;;;12.82;46.33
54455;BME280;40364;52.270;10.546;2023-01-25T04:31:06;102576.75;;;13.46;44.94
54455;BME280;40364;52.270;10.546;2023-01-25T04:33:33;102571.59;;;14.20;43.47
54455;BME280;40364;52.270;10.546;2023-01-25T04:36:00;102564.16;;;13.35;44.65
54455;BME280;40364;52.270;10.546;2023-01-25T04:38:27;102560.31;;;12.48;46.85
54455;BME280;40364;52.270;10.546;2023-01-25T04:40:53;102565.22;;;13.83;44.31
54455;BME280;40364;52.270;10.546;2023-01-25T04:43:21;102553.59;;;13.04;45.62
54455;BME280;40364;52.270;10.546;2023-01-25T04:45:49;102557.84;;;13.88;44.05
54455;BME280;40364;52.270;10.546;2023-01-25T04:48:15;102551.44;;;13.51;44.41
54455;BME280;40364;52.270;10.546;2023-01-25T04:50:42;102548.50;;;13.34;44.46
54455;BME280;40364;52.270;10.546;2023-01-25T04:53:10;102549.22;;;13.26;45.25
54455;BME280;40364;52.270;10.546;2023-01-25T04:55:37;102539.34;;;13.42;44.76
54455;BME280;40364;52.270;10.546;2023-01-25T04:58:04;102539.06;;;13.30;44.83
54455;BME280;40364;52.270;10.546;2023-01-25T05:00:32;102543.06;;;13.96;44.02
54455;BME280;40364;52.270;10.546;2023-01-25T05:03:02;102524.75;;;14.43;43.05
54455;BME280;40364;52.270;10.546;2023-01-25T05:05:48;102533.75;;;14.71;42.64
54455;BME280;40364;52.270;10.546;2023-01-25T05:08:24;102523.81;;;14.56;42.66
54455;BME280;40364;52.270;10.546;2023-01-25T05:14:16;102520.13;;;13.49;44.30
54455;BME280;40364;52.270;10.546;2023-01-25T05:17:27;102517.31;;;14.16;43.20
54455;BME280;40364;52.270;10.546;2023-01-25T05:20:11;102520.41;;;13.83;43.58
54455;BME280;40364;52.270;10.546;2023-01-25T05:23:19;102534.28;;;13.66;44.18
54455;BME280;40364;52.270;10.546;2023-01-25T05:25:55;102512.56;;;13.94;43.79
54455;BME280;40364;52.270;10.546;2023-01-25T05:28:41;102515.75;;;14.01;43.19
54455;BME280;40364;52.270;10.546;2023-01-25T05:31:33;102518.75;;;14.05;43.44
54455;BME280;40364;52.270;10.546;2023-01-25T05:34:28;102515.59;;;12.76;46.09
54455;BME280;40364;52.270;10.546;2023-01-25T05:37:17;102519.53;;;13.74;44.35
54455;BME280;40364;52.270;10.546;2023-01-25T05:40:06;102519.63;;;13.47;44.82
54455;BME280;40364;52.270;10.546;2023-01-25T05:43:04;102510.41;;;12.69;46.27
54455;BME280;40364;52.270;10.546;2023-01-25T05:45:39;102514.38;;;12.82;46.10
54455;BME280;40364;52.270;10.546;2023-01-25T05:48:24;102513.22;;;12.42;47.38
54455;BME280;40364;52.270;10.546;2023-01-25T05:54:01;102507.28;;;13.48;44.88
54455;BME280;40364;52.270;10.546;2023-01-25T05:56:42;102509.59;;;13.68;44.30
54455;BME280;40364;52.270;10.546;2023-01-25T05:59:30;102493.91;;;13.90;44.50
54455;BME280;40364;52.270;10.546;2023-01-25T06:02:20;102491.31;;;13.12;45.61
54455;BME280;40364;52.270;10.546;2023-01-25T06:05:05;102482.50;;;13.05;45.30
54455;BME280;40364;52.270;10.546;2023-01-25T06:07:43;102492.78;;;12.14;48.29
54455;BME280;40364;52.270;10.546;2023-01-25T06:10:24;102499.09;;;12.88;46.53
54455;BME280;40364;52.270;10.546;2023-01-25T06:13:02;102482.22;;;11.08;51.01
54455;BME280;40364;52.270;10.546;2023-01-25T06:15:48;102477.84;;;11.21;50.34
54455;BME280;40364;52.270;10.546;2023-01-25T06:18:22;102493.63;;;12.28;48.41
54455;BME280;40364;52.270;10.546;2023-01-25T06:24:36;102494.41;;;12.01;48.96
54455;BME280;40364;52.270;10.546;2023-01-25T06:27:10;102489.06;;;12.32;47.57
54455;BME280;40364;52.270;10.546;2023-01-25T06:29:37;102495.19;;;12.34;47.36
54455;BME280;40364;52.270;10.546;2023-01-25T06:32:03;102494.06;;;11.00;50.52
54455;BME280;40364;52.270;10.546;2023-01-25T06:34:30;102491.44;;;12.25;48.20
54455;BME280;40364;52.270;10.546;2023-01-25T06:36:57;102490.63;;;12.25;47.27
54455;BME280;40364;52.270;10.546;2023-01-25T06:39:24;102496.88;;;11.70;49.71
54455;BME280;40364;52.270;10.546;2023-01-25T06:41:52;102496.75;;;13.45;45.95
54455;BME280;40364;52.270;10.546;2023-01-25T06:44:19;102505.69;;;13.56;44.98
54455;BME280;40364;52.270;10.546;2023-01-25T06:46:46;102502.69;;;13.30;45.48
54455;BME280;40364;52.270;10.546;2023-01-25T06:49:12;102499.44;;;12.73;45.81
54455;BME280;40364;52.270;10.546;2023-01-25T06:51:39;102501.31;;;12.23;47.66
54455;BME280;40364;52.270;10.546;2023-01-25T06:54:06;102497.19;;;13.25;45.59
54455;BME280;40364;52.270;10.546;2023-01-25T06:56:32;102492.16;;;12.99;45.79
54455;BME280;40364;52.270;10.546;2023-01-25T06:59:00;102488.78;;;13.38;45.08
54455;BME280;40364;52.270;10.546;2023-01-25T07:01:27;102483.66;;;11.06;49.86
54455;BME280;40364;52.270;10.546;2023-01-25T07:03:56;102483.09;;;12.53;47.34
54455;BME280;40364;52.270;10.546;2023-01-25T07:06:24;102483.63;;;11.95;48.43
54455;BME280;40364;52.270;10.546;2023-01-25T07:08:51;102484.72;;;12.12;47.87
54455;BME280;40364;52.270;10.546;2023-01-25T07:11:18;102476.97;;;12.37;47.17
54455;BME280;40364;52.270;10.546;2023-01-25T07:13:45;102470.81;;;11.61;48.98
54455;BME280;40364;52.270;10.546;2023-01-25T07:16:15;102473.47;;;11.53;50.00
54455;BME280;40364;52.270;10.546;2023-01-25T07:18:43;102483.91;;;12.39;47.25
54455;BME280;40364;52.270;10.546;2023-01-25T07:21:12;102482.25;;;12.66;47.18
54455;BME280;40364;52.270;10.546;2023-01-25T07:23:39;102481.06;;;12.94;45.89
54455;BME280;40364;52.270;10.546;2023-01-25T07:26:14;102478.06;;;12.91;46.54
54455;BME280;40364;52.270;10.546;2023-01-25T07:28:41;102477.88;;;12.87;46.23
54455;BME280;40364;52.270;10.546;2023-01-25T07:31:08;102479.75;;;12.78;47.00
54455;BME280;40364;52.270;10.546;2023-01-25T07:33:36;102473.88;;;12.38;47.74
54455;BME280;40364;52.270;10.546;2023-01-25T07:36:04;102472.94;;;12.29;47.82
54455;BME280;40364;52.270;10.546;2023-01-25T07:38:32;102469.63;;;11.48;49.50
54455;BME280;40364;52.270;10.546;2023-01-25T07:40:59;102471.00;;;11.84;49.22
54455;BME280;40364;52.270;10.546;2023-01-25T07:43:26;102466.22;;;11.33;50.09
54455;BME280;40364;52.270;10.546;2023-01-25T07:45:58;102471.31;;;11.63;49.21
54455;BME280;40364;52.270;10.546;2023-01-25T07:48:25;102461.41;;;10.82;51.97
54455;BME280;40364;52.270;10.546;2023-01-25T07:50:57;102458.94;;;9.80;54.24
54455;BME280;40364;52.270;10.546;2023-01-25T07:53:37;102454.81;;;10.30;53.77
54455;BME280;40364;52.270;10.546;2023-01-25T07:56:05;102460.72;;;9.71;55.03
54455;BME280;40364;52.270;10.546;2023-01-25T07:58:32;102455.47;;;10.70;52.10
54455;BME280;40364;52.270;10.546;2023-01-25T08:01:05;102460.50;;;12.76;48.01
54455;BME280;40364;52.270;10.546;2023-01-25T08:03:32;102454.28;;;12.79;47.42
54455;BME280;40364;52.270;10.546;2023-01-25T08:06:00;102443.22;;;12.06;47.88
54455;BME280;40364;52.270;10.546;2023-01-25T08:08:29;102455.59;;;11.35;50.45
54455;BME280;40364;52.270;10.546;2023-01-25T08:10:58;102463.38;;;12.03;48.62
54455;BME280;40364;52.270;10.546;2023-01-25T08:13:25;102452.59;;;10.94;50.68
54455;BME280;40364;52.270;10.546;2023-01-25T08:15:52;102454.91;;;11.43;50.48
54455;BME280;40364;52.270;10.546;2023-01-25T08:18:19;102455.44;;;11.45;49.68
54455;BME280;40364;52.270;10.546;2023-01-25T08:20:46;102460.75;;;10.90;50.89
54455;BME280;40364;52.270;10.546;2023-01-25T08:23:15;102452.00;;;10.97;51.40
54455;BME280;40364;52.270;10.546;2023-01-25T08:25:41;102453.25;;;10.43;52.24
54455;BME280;40364;52.270;10.546;2023-01-25T08:28:08;102446.03;;;10.66;52.12
54455;BME280;40364;52.270;10.546;2023-01-25T08:30:35;102454.41;;;10.85;51.57
54455;BME280;40364;52.270;10.546;2023-01-25T08:33:02;102459.72;;;11.56;49.54
54455;BME280;40364;52.270;10.546;2023-01-25T08:35:29;102455.84;;;11.71;49.01
54455;BME280;40364;52.270;10.546;2023-01-25T08:37:55;102450.06;;;11.48;49.25
54455;BME280;40364;52.270;10.546;2023-01-25T08:40:23;102449.31;;;12.08;48.85
54455;BME280;40364;52.270;10.546;2023-01-25T08:42:50;102450.97;;;10.26;51.33
54455;BME280;40364;52.270;10.546;2023-01-25T08:45:17;102439.56;;;9.70;53.40
54455;BME280;40364;52.270;10.546;2023-01-25T08:47:44;102446.75;;;9.03;55.69
54455;BME280;40364;52.270;10.546;2023-01-25T08:50:10;102435.50;;;9.57;55.43
54455;BME280;40364;52.270;10.546;2023-01-25T08:52:37;102428.59;;;9.78;54.42
54455;BME280;40364;52.270;10.546;2023-01-25T08:55:05;102432.13;;;11.36;50.36
54455;BME280;40364;52.270;10.546;2023-01-25T08:57:33;102429.22;;;11.78;49.48
54455;BME280;40364;52.270;10.546;2023-01-25T09:00:00;102421.19;;;12.18;47.84
54455;BME280;40364;52.270;10.546;2023-01-25T09:02:26;102421.66;;;10.53;51.13
54455;BME280;40364;52.270;10.546;2023-01-25T09:04:53;102420.75;;;11.32;50.06
54455;BME280;40364;52.270;10.546;2023-01-25T09:07:20;102414.78;;;11.58;49.41
54455;BME280;40364;52.270;10.546;2023-01-25T09:09:46;102408.63;;;10.48;51.84
54455;BME280;40364;52.270;10.546;2023-01-25T09:12:13;102399.44;;;10.48;51.75
54455;BME280;40364;52.270;10.546;2023-01-25T09:14:41;102413.56;;;11.12;50.67
54455;BME280;40364;52.270;10.546;2023-01-25T09:17:08;102403.75;;;9.87;53.57
54455;BME280;40364;52.270;10.546;2023-01-25T09:19:35;102412.25;;;10.01;52.37
54455;BME280;40364;52.270;10.546;2023-01-25T09:22:02;102408.53;;;9.82;53.80
54455;BME280;40364;52.270;10.546;2023-01-25T09:24:28;102416.34;;;9.79;52.69
54455;BME280;40364;52.270;10.546;2023-01-25T09:26:55;102407.41;;;10.35;51.82
54455;BME280;40364;52.270;10.546;2023-01-25T09:29:22;102403.69;;;10.64;51.07
54455;BME280;40364;52.270;10.546;2023-01-25T09:31:50;102411.25;;;12.39;47.44
54455;BME280;40364;52.270;10.546;2023-01-25T09:34:16;102413.75;;;12.41;46.82
54455;BME280;40364;52.270;10.546;2023-01-25T09:36:44;102414.16;;;11.61;48.41
54455;BME280;40364;52.270;10.546;2023-01-25T09:39:11;102405.66;;;10.82;49.67
54455;BME280;40364;52.270;10.546;2023-01-25T09:42:15;102395.31;;;10.83;50.65
54455;BME280;40364;52.270;10.546;2023-01-25T09:45:14;102396.34;;;12.30;48.00
54455;BME280;40364;52.270;10.546;2023-01-25T09:47:51;102393.34;;;11.53;48.58
54455;BME280;40364;52.270;10.546;2023-01-25T09:50:47;102391.03;;;10.53;51.23
54455;BME280;40364;52.270;10.546;2023-01-25T09:53:26;102391.44;;;10.17;52.71
54455;BME280;40364;52.270;10.546;2023-01-25T09:55:55;102387.09;;;9.24;54.75
54455;BME280;40364;52.270;10.546;2023-01-25T09:58:26;102369.75;;;9.37;55.13
54455;BME280;40364;52.270;10.546;2023-01-25T10:01:07;102374.91;;;9.49;55.97
54455;BME280;40364;52.270;10.546;2023-01-25T10:03:42;102364.38;;;10.84;52.06
54455;BME280;40364;52.270;10.546;2023-01-25T10:06:12;102363.56;;;9.45;54.54
54455;BME280;40364;52.270;10.546;2023-01-25T10:08:47;102357.81;;;9.90;54.93
54455;BME280;40364;52.270;10.546;2023-01-25T10:11:21;102349.56;;;9.79;54.04
54455;BME280;40364;52.270;10.546;2023-01-25T10:13:49;102353.66;;;10.72;51.45
54455;BME280;40364;52.270;10.546;2023-01-25T10:16:19;102341.00;;;11.77;49.09
54455;BME280;40364;52.270;10.546;2023-01-25T10:18:55;102345.81;;;10.93;50.73
54455;BME280;40364;52.270;10.546;2023-01-25T10:21:29;102333.47;;;10.24;52.50
54455;BME280;40364;52.270;10.546;2023-01-25T10:24:17;102330.91;;;9.56;53.64
54455;BME280;40364;52.270;10.546;2023-01-25T10:26:51;102337.59;;;10.27;52.09
54455;BME280;40364;52.270;10.546;2023-01-25T10:29:22;102334.38;;;10.76;51.45
54455;BME280;40364;52.270;10.546;2023-01-25T10:31:53;102322.63;;;10.79;50.52
54455;BME280;40364;52.270;10.546;2023-01-25T10:34:25;102324.28;;;10.80;50.78
54455;BME280;40364;52.270;10.546;2023-01-25T10:36:54;102314.50;;;10.64;50.91
54455;BME280;40364;52.270;10.546;2023-01-25T10:39:21;102315.72;;;10.15;51.95
54455;BME280;40364;52.270;10.546;2023-01-25T10:41:52;102306.22;;;10.40;51.84
54455;BME280;40364;52.270;10.546;2023-01-25T10:44:22;102302.28;;;10.97;50.17
54455;BME280;40364;52.270;10.546;2023-01-25T10:46:56;102295.50;;;10.85;50.84
54455;BME280;40364;52.270;10.546;2023-01-25T10:49:33;102285.78;;;11.14;49.43
54455;BME280;40364;52.270;10.546;2023-01-25T10:52:15;102290.75;;;11.91;48.20
54455;BME280;40364;52.270;10.546;2023-01-25T10:54:42;102291.94;;;12.85;46.38
54455;BME280;40364;52.270;10.546;2023-01-25T10:57:13;102289.69;;;11.73;48.65
54455;BME280;40364;52.270;10.546;2023-01-25T10:59:43;102277.28;;;12.07;47.88
54455;BME280;40364;52.270;10.546;2023-01-25T11:04:54;102258.38;;;9.71;54.05
54455;BME280;40364;52.270;10.546;2023-01-25T11:07:26;102265.66;;;10.10;54.01
54455;BME280;40364;52.270;10.546;2023-01-25T11:09:55;102258.38;;;9.71;53.61
54455;BME280;40364;52.270;10.546;2023-01-25T11:12:21;102257.06;;;9.88;53.51
54455;BME280;40364;52.270;10.546;2023-01-25T11:14:49;102250.91;;;10.33;52.08
54455;BME280;40364;52.270;10.546;2023-01-25T11:17:24;102242.78;;;9.94;55.08
54455;BME280;40364;52.270;10.546;2023-01-25T11:20:14;102232.66;;;10.92;50.70
54455;BME280;40364;52.270;10.546;2023-01-25T11:22:48;102240.34;;;11.41;49.80
54455;BME280;40364;52.270;10.546;2023-01-25T11:25:26;102235.38;;;12.07;47.85
54455;BME280;40364;52.270;10.546;2023-01-25T11:28:09;102242.91;;;10.78;50.50
54455;BME280;40364;52.270;10.546;2023-01-25T11:30:36;102243.53;;;9.57;54.09
54455;BME280;40364;52.270;10.546;2023-01-25T11:33:08;102233.41;;;9.66;54.62
54455;BME280;40364;52.270;10.546;2023-01-25T11:35:45;102219.16;;;9.92;53.45
54455;BME280;40364;52.270;10.546;2023-01-25T11:38:17;102214.44;;;11.55;50.06
54455;BME280;40364;52.270;10.546;2023-01-25T11:40:48;102215.63;;;12.03;48.32
54455;BME280;40364;52.270;10.546;2023-01-25T11:43:28;102211.81;;;12.58;48.25
54455;BME280;40364;52.270;10.546;2023-01-25T11:46:24;102202.22;;;11.64;49.25
54455;BME280;40364;52.270;10.546;2023-01-25T11:49:12;102187.03;;;11.16;49.56
54455;BME280;40364;52.270;10.546;2023-01-25T11:51:49;102183.31;;;11.61;49.57
54455;BME280;40364;52.270;10.546;2023-01-25T11:54:43;102183.97;;;12.30;47.99
54455;BME280;40364;52.270;10.546;2023-01-25T11:57:25;102184.16;;;12.11;47.75
54455;BME280;40364;52.270;10.546;2023-01-25T12:00:03;102181.19;;;12.08;47.52
54455;BME280;40364;52.270;10.546;2023-01-25T12:02:59;102170.72;;;11.50;49.26
54455;BME280;40364;52.270;10.546;2023-01-25T12:05:38;102167.13;;;10.62;50.86
54455;BME280;40364;52.270;10.546;2023-01-25T12:08:26;102162.63;;;11.07;50.65
54455;BME280;40364;52.270;10.546;2023-01-25T12:11:03;102155.72;;;9.89;53.55
54455;BME280;40364;52.270;10.546;2023-01-25T12:13:34;102157.69;;;11.45;49.62
54455;BME280;40364;52.270;10.546;2023-01-25T12:16:16;102156.00;;;11.86;48.76
54455;BME280;40364;52.270;10.546;2023-01-25T12:19:01;102145.56;;;11.91;48.79
54455;BME280;40364;52.270;10.546;2023-01-25T12:21:41;102133.72;;;11.58;49.48
54455;BME280;40364;52.270;10.546;2023-01-25T12:24:25;102133.47;;;12.18;48.92
54455;BME280;40364;52.270;10.546;2023-01-25T12:27:07;102126.69;;;11.33;49.62
54455;BME280;40364;52.270;10.546;2023-01-25T12:29:41;102116.50;;;11.92;48.77
54455;BME280;40364;52.270;10.546;2023-01-25T12:32:11;102097.06;;;12.32;47.65
54455;BME280;40364;52.270;10.546;2023-01-25T12:34:45;102100.44;;;10.79;51.42
54455;BME280;40364;52.270;10.546;2023-01-25T12:37:16;102096.53;;;10.80;51.13
54455;BME280;40364;52.270;10.546;2023-01-25T12:39:50;102086.00;;;10.64;51.35
54455;BME280;40364;52.270;10.546;2023-01-25T12:42:23;102074.47;;;10.98;51.34
54455;BME280;40364;52.270;10.546;2023-01-25T12:44:55;102077.06;;;11.58;50.09
54455;BME280;40364;52.270;10.546;2023-01-25T12:47:29;102065.56;;;10.68;50.77
54455;BME280;40364;52.270;10.546;2023-01-25T12:50:05;102060.38;;;12.02;48.55
54455;BME280;40364;52.270;10.546;2023-01-25T12:52:44;102052.75;;;11.94;48.29
54455;BME280;40364;52.270;10.546;2023-01-25T12:55:14;102047.31;;;11.89;48.56
54455;BME280;40364;52.270;10.546;2023-01-25T12:57:49;102036.72;;;12.31;48.09
54455;BME280;40364;52.270;10.546;2023-01-25T13:00:21;102037.72;;;12.04;48.65
54455;BME280;40364;52.270;10.546;2023-01-25T13:02:58;102028.34;;;13.10;46.15
54455;BME280;40364;52.270;10.546;2023-01-25T13:05:30;102040.53;;;12.66;46.13
54455;BME280;40364;52.270;10.546;2023-01-25T13:08:05;102037.69;;;10.08;51.49
54455;BME280;40364;52.270;10.546;2023-01-25T13:10:41;102030.88;;;10.88;50.18
54455;BME280;40364;52.270;10.546;2023-01-25T13:13:20;102029.84;;;9.59;53.48
54455;BME280;40364;52.270;10.546;2023-01-25T13:15:48;102032.28;;;9.79;52.21
54455;BME280;40364;52.270;10.546;2023-01-25T13:18:34;102026.75;;;10.99;50.12